createdAt,value
2022-11-02T00:00:48.911Z,9.31
2022-11-02T00:03:51.761Z,9.32
2022-11-02T00:06:54.233Z,9.32
2022-11-02T00:09:56.954Z,9.35
2022-11-02T00:12:59.471Z,9.33
2022-11-02T00:16:08.524Z,9.32
2022-11-02T00:19:11.059Z,9.31
2022-11-02T00:22:13.959Z,9.32
2022-11-02T00:25:18.814Z,9.29
2022-11-02T00:28:21.665Z,9.30
2022-11-02T00:31:24.104Z,9.31
2022-11-02T00:34:27.069Z,9.34
2022-11-02T00:37:29.512Z,9.36
2022-11-02T00:40:32.386Z,9.38
2022-11-02T00:43:34.985Z,9.44
2022-11-02T00:46:37.873Z,9.45
2022-11-02T00:49:40.801Z,9.49
2022-11-02T00:52:44.139Z,9.53
2022-11-02T00:55:47.595Z,9.54
2022-11-02T00:58:51.423Z,9.54
2022-11-02T01:01:56.570Z,9.55
2022-11-02T01:05:00.516Z,9.57
2022-11-02T01:08:03.354Z,9.58
2022-11-02T01:11:25.291Z,9.61
2022-11-02T01:14:27.726Z,9.60
2022-11-02T01:17:30.459Z,9.55
2022-11-02T01:20:32.954Z,9.53
2022-11-02T01:23:36.947Z,9.54
2022-11-02T01:26:39.449Z,9.54
2022-11-02T01:29:43.029Z,9.54
2022-11-02T01:32:45.555Z,9.59
2022-11-02T01:35:48.427Z,9.66
2022-11-02T01:38:51.285Z,9.71
2022-11-02T01:41:54.206Z,9.74
2022-11-02T01:44:56.869Z,9.77
2022-11-02T01:47:59.708Z,9.79
2022-11-02T01:51:06.073Z,9.80
2022-11-02T01:54:19.054Z,9.81
2022-11-02T01:57:22.300Z,9.81
2022-11-02T02:00:25.159Z,9.81
2022-11-02T02:03:30.643Z,9.82
2022-11-02T02:06:33.578Z,9.82
2022-11-02T02:09:37.155Z,9.83
2022-11-02T02:12:41.420Z,9.84
2022-11-02T02:15:50.290Z,9.84
2022-11-02T02:18:57.705Z,9.87
2022-11-02T02:22:12.092Z,9.88
2022-11-02T02:25:26.715Z,9.89
2022-11-02T02:28:35.205Z,9.90
2022-11-02T02:31:47.162Z,9.90
2022-11-02T02:34:59.793Z,9.88
2022-11-02T02:38:05.496Z,9.80
2022-11-02T02:41:14.657Z,9.81
2022-11-02T02:44:21.951Z,9.80
2022-11-02T02:47:27.859Z,9.78
2022-11-02T02:50:46.244Z,9.75
2022-11-02T02:53:53.946Z,9.71
2022-11-02T02:57:06.373Z,9.70
2022-11-02T03:00:17.535Z,9.66
2022-11-02T03:03:24.240Z,9.66
2022-11-02T03:06:30.836Z,9.66
2022-11-02T03:09:39.613Z,9.63
2022-11-02T03:12:46.546Z,9.63
2022-11-02T03:16:12.441Z,9.61
2022-11-02T03:19:15.458Z,9.60
2022-11-02T03:22:38.977Z,9.62
2022-11-02T03:25:47.498Z,9.63
2022-11-02T03:29:08.300Z,9.66
2022-11-02T03:32:19.583Z,9.69
2022-11-02T03:35:31.868Z,9.71
2022-11-02T03:38:41.238Z,9.71
2022-11-02T03:41:45.636Z,9.71
2022-11-02T03:44:52.396Z,9.69
2022-11-02T03:48:00.176Z,9.68
2022-11-02T03:51:06.093Z,9.72
2022-11-02T03:54:27.008Z,9.72
2022-11-02T03:57:34.622Z,9.73
2022-11-02T04:00:38.474Z,9.76
2022-11-02T04:03:44.260Z,9.74
2022-11-02T04:06:48.539Z,9.72
2022-11-02T04:09:51.573Z,9.73
2022-11-02T04:13:13.012Z,9.72
2022-11-02T04:16:16.499Z,9.72
2022-11-02T04:19:27.936Z,9.71
2022-11-02T04:22:50.576Z,9.73
2022-11-02T04:25:55.907Z,9.75
2022-11-02T04:29:05.734Z,9.74
2022-11-02T04:32:08.463Z,9.72
2022-11-02T04:35:11.322Z,9.70
2022-11-02T04:38:33.090Z,9.66
2022-11-02T04:41:41.709Z,9.61
2022-11-02T04:44:44.680Z,9.54
2022-11-02T04:47:48.514Z,9.49
2022-11-02T04:50:51.970Z,9.39
2022-11-02T04:53:55.834Z,9.35
2022-11-02T04:56:59.136Z,9.26
2022-11-02T05:00:02.191Z,9.21
2022-11-02T05:03:08.239Z,9.28
2022-11-02T05:06:14.700Z,9.14
2022-11-02T05:09:17.403Z,9.03
2022-11-02T05:12:23.144Z,8.99
2022-11-02T05:15:28.254Z,8.96
2022-11-02T05:18:31.335Z,8.93
2022-11-02T05:21:34.111Z,8.86
2022-11-02T05:24:38.791Z,8.77
2022-11-02T05:27:42.836Z,8.71
2022-11-02T05:30:45.667Z,8.63
2022-11-02T05:33:48.248Z,8.59
2022-11-02T05:36:51.189Z,8.62
2022-11-02T05:39:54.250Z,8.70
2022-11-02T05:43:01.920Z,8.80
2022-11-02T05:46:05.061Z,8.96
2022-11-02T05:49:07.831Z,9.07
2022-11-02T05:52:10.346Z,9.20
2022-11-02T05:55:13.402Z,9.25
2022-11-02T05:58:15.950Z,9.32
2022-11-02T06:01:18.740Z,9.34
2022-11-02T06:04:21.532Z,9.38
2022-11-02T06:07:23.998Z,9.42
2022-11-02T06:10:30.833Z,9.47
2022-11-02T06:13:33.292Z,9.54
2022-11-02T06:16:36.015Z,9.57
2022-11-02T06:19:38.772Z,9.63
2022-11-02T06:22:42.044Z,9.67
2022-11-02T06:25:53.852Z,9.72
2022-11-02T06:28:56.709Z,9.79
2022-11-02T06:31:59.953Z,9.90
2022-11-02T06:35:02.762Z,10.03
2022-11-02T06:38:05.384Z,10.09
2022-11-02T06:41:08.265Z,10.14
2022-11-02T06:44:11.939Z,10.09
2022-11-02T06:47:14.783Z,10.02
2022-11-02T06:50:17.781Z,9.94
2022-11-02T06:53:20.635Z,9.89
2022-11-02T06:56:23.224Z,10.04
2022-11-02T06:59:26.157Z,11.61
2022-11-02T07:02:28.870Z,13.76
2022-11-02T07:05:32.888Z,15.20
2022-11-02T07:08:35.639Z,16.07
2022-11-02T07:11:38.856Z,16.77
2022-11-02T07:14:41.635Z,17.55
2022-11-02T07:17:44.481Z,18.05
2022-11-02T07:20:47.139Z,18.48
2022-11-02T07:23:50.634Z,18.37
2022-11-02T07:26:53.162Z,18.67
2022-11-02T07:29:56.176Z,19.23
2022-11-02T07:32:58.871Z,19.34
2022-11-02T07:36:03.974Z,19.52
2022-11-02T07:39:09.584Z,19.76
2022-11-02T07:42:12.483Z,19.26
2022-11-02T07:45:18.163Z,19.47
2022-11-02T07:48:21.327Z,19.85
2022-11-02T07:51:23.864Z,20.00
2022-11-02T07:54:26.721Z,19.80
2022-11-02T07:57:29.295Z,20.19
2022-11-02T08:00:35.448Z,19.53
2022-11-02T08:03:38.467Z,20.38
2022-11-02T08:06:41.008Z,20.59
2022-11-02T08:09:43.860Z,20.90
2022-11-02T08:12:46.846Z,20.26
2022-11-02T08:15:53.765Z,20.52
2022-11-02T08:18:59.312Z,20.34
2022-11-02T08:22:02.314Z,19.25
2022-11-02T08:25:05.679Z,18.29
2022-11-02T08:28:13.510Z,18.91
2022-11-02T08:31:17.651Z,19.57
2022-11-02T08:34:20.447Z,20.16
2022-11-02T08:37:22.875Z,19.47
2022-11-02T08:40:26.514Z,19.19
2022-11-02T08:43:29.058Z,19.17
2022-11-02T08:46:31.940Z,18.40
2022-11-02T08:49:34.803Z,18.57
2022-11-02T08:52:40.609Z,18.26
2022-11-02T08:55:43.579Z,18.74
2022-11-02T08:58:46.571Z,19.04
2022-11-02T09:01:49.276Z,17.96
2022-11-02T09:04:52.275Z,17.77
2022-11-02T09:07:59.847Z,18.68
2022-11-02T09:11:04.704Z,19.32
2022-11-02T09:14:08.022Z,20.00
2022-11-02T09:17:10.940Z,19.80
2022-11-02T09:20:14.212Z,20.24
2022-11-02T09:23:17.880Z,20.48
2022-11-02T09:26:20.353Z,19.41
2022-11-02T09:32:27.354Z,18.80
2022-11-02T09:35:32.279Z,17.74
2022-11-02T09:38:34.936Z,17.13
2022-11-02T09:41:49.331Z,16.74
2022-11-02T09:45:12.883Z,16.47
2022-11-02T09:48:28.078Z,16.64
2022-11-02T09:51:37.806Z,16.43
2022-11-02T09:54:41.115Z,16.38
2022-11-02T09:57:46.172Z,16.42
2022-11-02T10:00:49.756Z,16.40
2022-11-02T10:04:40.885Z,16.38
2022-11-02T10:08:11.379Z,16.45
2022-11-02T10:11:22.016Z,16.50
2022-11-02T10:14:30.853Z,16.65
2022-11-02T10:17:37.354Z,16.76
2022-11-02T10:20:46.190Z,16.86
2022-11-02T10:23:53.859Z,16.79
2022-11-02T10:26:59.645Z,16.74
2022-11-02T10:30:18.356Z,16.83
2022-11-02T10:33:28.326Z,16.65
2022-11-02T10:37:01.035Z,16.83
2022-11-02T10:40:19.295Z,16.88
2022-11-02T10:43:40.837Z,16.89
2022-11-02T10:46:53.536Z,16.92
2022-11-02T10:50:24.258Z,17.11
2022-11-02T10:53:40.598Z,17.12
2022-11-02T10:56:47.448Z,17.12
2022-11-02T11:00:29.286Z,17.12
2022-11-02T11:03:32.252Z,17.21
2022-11-02T11:06:37.360Z,17.41
2022-11-02T11:09:52.283Z,17.34
2022-11-02T11:12:55.110Z,17.35
2022-11-02T11:15:58.295Z,17.40
2022-11-02T11:22:24.320Z,17.34
2022-11-02T11:25:28.394Z,17.35
2022-11-02T11:28:41.073Z,17.39
2022-11-02T11:31:43.714Z,17.43
2022-11-02T11:34:54.162Z,17.39
2022-11-02T11:37:59.226Z,17.50
2022-11-02T11:41:02.539Z,17.43
2022-11-02T11:44:08.310Z,17.37
2022-11-02T11:47:11.533Z,17.43
2022-11-02T11:50:22.610Z,17.33
2022-11-02T11:53:33.179Z,17.26
2022-11-02T11:56:35.974Z,17.35
2022-11-02T11:59:46.913Z,17.33
2022-11-02T12:03:04.222Z,17.44
2022-11-02T12:06:24.067Z,17.45
2022-11-02T12:09:54.834Z,17.45
2022-11-02T12:13:22.266Z,17.48
2022-11-02T12:17:03.398Z,17.30
2022-11-02T12:20:27.861Z,17.41
2022-11-02T12:23:56.647Z,17.43
2022-11-02T12:27:10.955Z,17.30
2022-11-02T12:30:17.157Z,17.30
2022-11-02T12:33:32.118Z,17.24
2022-11-02T12:37:31.287Z,17.30
2022-11-02T12:40:23.512Z,17.57
2022-11-02T12:43:28.938Z,17.42
2022-11-02T12:46:48.958Z,17.45
2022-11-02T12:50:00.897Z,17.46
2022-11-02T12:53:17.329Z,17.44
2022-11-02T12:56:23.313Z,17.29
2022-11-02T12:59:28.253Z,17.47
2022-11-02T13:02:31.879Z,17.48
2022-11-02T13:05:50.548Z,17.39
2022-11-02T13:09:18.865Z,17.35
2022-11-02T13:12:23.202Z,17.28
2022-11-02T13:15:27.914Z,17.28
2022-11-02T13:18:35.394Z,17.34
2022-11-02T13:21:44.085Z,17.47
2022-11-02T13:24:52.339Z,17.44
2022-11-02T13:28:04.263Z,17.48
2022-11-02T13:31:15.586Z,17.46
2022-11-02T13:34:23.291Z,17.41
2022-11-02T13:37:49.493Z,17.34
2022-11-02T13:41:01.802Z,17.29
2022-11-02T13:44:31.868Z,17.20
2022-11-02T13:47:52.036Z,17.11
2022-11-02T13:50:57.741Z,16.98
2022-11-02T13:54:20.159Z,16.90
2022-11-02T13:57:38.800Z,16.86
2022-11-02T14:00:44.863Z,16.88
2022-11-02T14:03:49.367Z,16.80
2022-11-02T14:06:53.864Z,16.74
2022-11-02T14:10:08.865Z,16.63
2022-11-02T14:13:14.674Z,16.50
2022-11-02T14:16:48.274Z,16.43
2022-11-02T14:19:52.682Z,16.39
2022-11-02T14:23:14.543Z,16.30
2022-11-02T14:26:31.156Z,16.13
2022-11-02T14:29:45.048Z,16.06
2022-11-02T14:33:02.565Z,15.96
2022-11-02T14:36:28.421Z,15.82
2022-11-02T14:39:49.880Z,15.73
2022-11-02T14:43:22.967Z,15.53
2022-11-02T14:46:58.112Z,15.52
2022-11-02T14:50:12.975Z,15.46
2022-11-02T14:53:27.072Z,15.38
2022-11-02T14:56:48.560Z,15.27
2022-11-02T14:59:53.952Z,15.02
2022-11-02T15:02:57.274Z,15.02
2022-11-02T15:06:19.379Z,14.92
2022-11-02T15:10:10.619Z,14.74
2022-11-02T15:13:19.422Z,14.49
2022-11-02T15:16:23.404Z,14.43
2022-11-02T15:19:53.701Z,14.34
2022-11-02T15:23:31.263Z,14.21
2022-11-02T15:27:01.109Z,14.03
2022-11-02T15:30:06.502Z,13.74
2022-11-02T15:33:29.203Z,13.62
2022-11-02T15:36:39.139Z,13.44
2022-11-02T15:39:48.526Z,13.06
2022-11-02T15:43:03.571Z,13.12
2022-11-02T15:46:33.923Z,13.05
2022-11-02T15:49:42.686Z,13.08
2022-11-02T15:53:16.900Z,13.21
2022-11-02T15:56:49.688Z,13.36
2022-11-02T16:00:13.361Z,13.45
2022-11-02T16:03:17.561Z,13.37
2022-11-02T16:06:26.353Z,13.52
2022-11-02T16:09:32.991Z,13.54
2022-11-02T16:12:35.663Z,13.51
2022-11-02T16:15:42.277Z,13.42
2022-11-02T16:18:51.051Z,13.48
2022-11-02T16:21:58.447Z,13.46
2022-11-02T16:25:12.061Z,13.44
2022-11-02T16:28:20.960Z,13.48
2022-11-02T16:31:31.603Z,13.46
2022-11-02T16:34:34.432Z,13.47
2022-11-02T16:37:37.273Z,13.57
2022-11-02T16:40:40.140Z,13.59
2022-11-02T16:43:45.769Z,13.53
2022-11-02T16:46:52.500Z,13.42
2022-11-02T16:49:55.018Z,13.28
2022-11-02T16:53:02.563Z,13.17
2022-11-02T16:56:16.814Z,13.10
2022-11-02T16:59:21.402Z,12.91
2022-11-02T17:02:37.551Z,12.77
2022-11-02T17:05:42.173Z,12.66
2022-11-02T17:08:51.208Z,12.50
2022-11-02T17:11:56.856Z,12.42
2022-11-02T17:15:01.338Z,12.37
2022-11-02T17:18:26.269Z,12.36
2022-11-02T17:21:29.582Z,12.21
2022-11-02T17:24:32.990Z,12.05
2022-11-02T17:27:39.388Z,11.98
2022-11-02T17:30:45.864Z,11.90
2022-11-02T17:33:48.946Z,11.87
2022-11-02T17:36:52.234Z,12.01
2022-11-02T17:39:55.298Z,12.01
2022-11-02T17:43:02.282Z,11.90
2022-11-02T17:46:04.961Z,11.86
2022-11-02T17:49:07.845Z,11.83
2022-11-02T17:52:13.078Z,11.79
2022-11-02T17:55:21.320Z,11.74
2022-11-02T17:58:23.887Z,11.76
2022-11-02T18:01:26.769Z,11.72
2022-11-02T18:04:30.400Z,11.79
2022-11-02T18:07:33.267Z,11.80
2022-11-02T18:10:44.711Z,11.85
2022-11-02T18:13:47.590Z,11.82
2022-11-02T18:16:52.829Z,11.70
2022-11-02T18:19:55.769Z,11.55
2022-11-02T18:22:58.591Z,11.59
2022-11-02T18:26:01.079Z,11.57
2022-11-02T18:29:04.681Z,11.65
2022-11-02T18:32:07.149Z,11.54
2022-11-02T18:35:12.444Z,11.41
2022-11-02T18:38:15.150Z,11.32
2022-11-02T18:41:35.042Z,11.36
2022-11-02T18:57:13.119Z,11.54
2022-11-02T19:00:17.527Z,11.54
2022-11-02T19:03:20.139Z,11.04
2022-11-02T19:06:42.787Z,11.16
2022-11-02T19:09:46.092Z,11.34
2022-11-02T19:12:49.099Z,11.45
2022-11-02T19:15:51.808Z,11.51
2022-11-02T19:18:54.859Z,11.51
2022-11-02T19:21:57.652Z,11.51
2022-11-02T19:25:01.271Z,11.55
2022-11-02T19:28:04.671Z,11.58
2022-11-02T19:31:10.902Z,11.66
2022-11-02T19:34:13.767Z,11.64
2022-11-02T19:37:16.714Z,11.66
2022-11-02T19:40:19.302Z,11.68
2022-11-02T19:43:22.307Z,11.65
2022-11-02T19:46:25.742Z,11.53
2022-11-02T19:49:28.753Z,11.46
2022-11-02T19:52:31.767Z,11.40
2022-11-02T19:55:34.883Z,11.34
2022-11-02T19:58:37.919Z,11.18
2022-11-02T20:01:42.529Z,11.08
2022-11-02T20:04:45.942Z,10.94
2022-11-02T20:07:48.573Z,10.85
2022-11-02T20:10:51.616Z,10.72
2022-11-02T20:13:56.059Z,10.57
2022-11-02T20:17:17.803Z,10.40
2022-11-02T20:20:21.668Z,10.26
2022-11-02T20:23:24.767Z,10.46
2022-11-02T20:26:29.864Z,10.43
2022-11-02T20:29:33.145Z,10.49
2022-11-02T20:32:35.849Z,10.45
2022-11-02T20:35:40.044Z,10.40
2022-11-02T20:38:42.844Z,10.21
2022-11-02T20:41:46.188Z,10.02
2022-11-02T20:44:49.531Z,9.90
2022-11-02T20:47:52.381Z,9.78
2022-11-02T20:50:54.912Z,9.61
2022-11-02T20:53:57.623Z,9.50
2022-11-02T20:57:00.651Z,9.42
2022-11-02T21:00:07.138Z,9.32
2022-11-02T21:03:09.929Z,9.20
2022-11-02T21:06:12.703Z,9.10
2022-11-02T21:09:15.371Z,8.99
2022-11-02T21:12:36.792Z,8.84
2022-11-02T21:15:39.654Z,8.74
2022-11-02T21:18:42.721Z,8.67
2022-11-02T21:21:45.225Z,8.55
2022-11-02T21:24:48.033Z,8.48
2022-11-02T21:27:50.939Z,8.39
2022-11-02T21:30:53.798Z,8.33
2022-11-02T21:33:56.336Z,8.30
2022-11-02T21:36:59.133Z,8.23
2022-11-02T21:40:02.715Z,8.17
2022-11-02T21:43:05.796Z,8.11
2022-11-02T21:46:08.694Z,8.03
2022-11-02T21:49:13.098Z,8.05
2022-11-02T21:52:15.654Z,7.99
2022-11-02T21:55:18.432Z,7.91
2022-11-02T21:58:21.062Z,7.91
2022-11-02T22:01:48.491Z,7.88
2022-11-02T22:04:53.579Z,7.94
2022-11-02T22:08:14.888Z,7.93
2022-11-02T22:11:21.699Z,7.90
2022-11-02T22:14:24.148Z,7.85
2022-11-02T22:17:48.692Z,7.80
2022-11-02T22:20:55.827Z,7.82
2022-11-02T22:23:59.230Z,7.70
2022-11-02T22:27:03.498Z,7.73
2022-11-02T22:30:08.640Z,7.74
2022-11-02T22:33:11.632Z,7.69
2022-11-02T22:36:16.716Z,7.65
2022-11-02T22:39:19.138Z,7.59
2022-11-02T22:42:22.021Z,7.89
2022-11-02T22:45:24.448Z,7.65
2022-11-02T22:48:27.166Z,7.55
2022-11-02T22:51:31.572Z,7.46
2022-11-02T22:54:34.318Z,7.39
2022-11-02T22:57:36.800Z,7.32
2022-11-02T23:00:40.044Z,7.19
2022-11-02T23:03:42.910Z,7.16
2022-11-02T23:06:45.700Z,7.08
2022-11-02T23:09:48.313Z,7.12
2022-11-02T23:12:51.104Z,7.13
2022-11-02T23:16:21.104Z,7.15
2022-11-02T23:19:29.650Z,7.20
2022-11-02T23:22:32.470Z,7.12
2022-11-02T23:25:35.231Z,7.00
2022-11-02T23:28:56.748Z,6.90
2022-11-02T23:32:18.163Z,6.81
2022-11-02T23:35:38.968Z,6.79
2022-11-02T23:39:05.640Z,6.87
2022-11-02T23:42:08.113Z,6.73
2022-11-02T23:45:11.411Z,6.73
2022-11-02T23:51:40.102Z,6.66
2022-11-02T23:55:01.010Z,6.72
2022-11-02T23:58:03.782Z,6.63
